Time;durP1;ratioP1;P1;durP2;ratioP2;P2;SDS_P1;SDS_P2;PMS_P1;PMS_P2;Temp;Humidity;BMP_temperature;BMP_pressure;BME280_temperature;BME280_humidity;BME280_pressure;Samples;Min_cycle;Max_cycle;Signal;HPM_P1;HPM_P2
2023/10/21 00:01:20;;;;;;;14.65;6.00;;;614.80;1843.20;;;;;;4989752;28;20034;-58
2023/10/21 00:03:46;;;;;;;11.05;5.05;;;614.80;1843.20;;;;;;4987611;28;20436;-57
2023/10/21 00:06:11;;;;;;;16.85;5.45;;;614.80;1843.20;;;;;;4992331;28;20166;-57
2023/10/21 00:08:37;;;;;;;15.13;5.38;;;614.80;1843.20;;;;;;4985373;28;20034;-58
2023/10/21 00:11:05;;;;;;;17.48;5.07;;;614.70;1843.20;;;;;;4977650;28;20019;-58
2023/10/21 00:13:31;;;;;;;15.98;5.75;;;614.60;1868.80;;;;;;4992778;28;20501;-57
2023/10/21 00:15:56;;;;;;;10.88;5.38;;;614.60;1843.20;;;;;;4993068;28;20022;-59
2023/10/21 00:18:23;;;;;;;17.20;5.60;;;614.60;1868.80;;;;;;4992511;28;20030;-58
2023/10/21 00:20:50;;;;;;;16.35;6.30;;;614.50;1868.80;;;;;;4992705;28;20477;-58
2023/10/21 00:23:16;;;;;;;14.32;6.13;;;614.50;1868.80;;;;;;4992458;28;20046;-56
2023/10/21 00:25:42;;;;;;;18.38;5.97;;;614.50;1868.80;;;;;;4992886;28;20030;-57
2023/10/21 00:28:07;;;;;;;13.30;5.88;;;614.50;1868.80;;;;;;4992938;28;20053;-58
2023/10/21 00:30:33;;;;;;;16.23;6.28;;;614.40;1868.80;;;;;;4992759;28;20102;-59
2023/10/21 00:32:59;;;;;;;14.73;5.07;;;614.40;1868.80;;;;;;4992310;28;20460;-58
2023/10/21 00:35:24;;;;;;;14.48;5.30;;;614.40;1868.80;;;;;;4974991;28;20081;-58
2023/10/21 00:37:51;;;;;;;14.60;5.88;;;614.40;1868.80;;;;;;4992894;28;20038;-58
2023/10/21 00:40:17;;;;;;;18.83;6.95;;;614.40;1868.80;;;;;;4992800;28;20037;-58
2023/10/21 00:42:43;;;;;;;22.00;6.30;;;614.40;1868.80;;;;;;4980415;28;20503;-58
2023/10/21 00:45:09;;;;;;;13.70;5.85;;;614.40;1868.80;;;;;;4978003;28;20030;-56
2023/10/21 00:47:35;;;;;;;15.10;5.47;;;614.40;1868.80;;;;;;4991089;28;20388;-59
2023/10/21 00:50:02;;;;;;;14.15;5.03;;;614.40;1868.80;;;;;;4992520;28;20033;-58
2023/10/21 00:52:28;;;;;;;16.38;6.30;;;614.50;1843.20;;;;;;4992397;28;20085;-59
2023/10/21 00:54:58;;;;;;;15.80;6.43;;;614.40;1868.80;;;;;;4992101;28;20117;-58
2023/10/21 00:57:24;;;;;;;15.30;6.70;;;589.70;1868.80;;;;;;4991922;28;20100;-57
2023/10/21 00:59:50;;;;;;;10.43;5.93;;;589.70;1894.40;;;;;;4991897;28;20524;-59
2023/10/21 01:02:16;;;;;;;17.13;6.80;;;589.70;1868.80;;;;;;4991820;28;20101;-59
2023/10/21 01:04:42;;;;;;;14.98;5.20;;;614.40;1868.80;;;;;;4992203;28;20473;-58
2023/10/21 01:07:16;;;;;;;12.63;5.85;;;614.40;1868.80;;;;;;4990545;28;20038;-59
2023/10/21 01:09:42;;;;;;;20.73;6.75;;;614.40;1868.80;;;;;;4991749;28;20585;-58
2023/10/21 01:12:08;;;;;;;15.77;5.65;;;614.40;1868.80;;;;;;4991483;28;20041;-58
2023/10/21 01:14:34;;;;;;;15.00;6.30;;;614.40;1868.80;;;;;;4992573;28;20038;-58
2023/10/21 01:17:00;;;;;;;19.45;6.25;;;589.70;1868.80;;;;;;4991488;28;20026;-58
2023/10/21 01:19:25;;;;;;;14.18;5.00;;;589.70;1894.40;;;;;;4991774;28;20034;-58
2023/10/21 01:21:51;;;;;;;11.70;4.78;;;589.60;1894.40;;;;;;4973362;28;20487;-58
2023/10/21 01:24:17;;;;;;;15.25;5.57;;;589.70;1868.80;;;;;;4978125;28;20043;-59
2023/10/21 01:26:43;;;;;;;12.30;5.95;;;589.70;1868.80;;;;;;4991211;28;20101;-57
2023/10/21 01:29:09;;;;;;;9.25;6.10;;;614.40;1868.80;;;;;;4991580;28;20366;-58
2023/10/21 01:31:35;;;;;;;18.20;6.28;;;614.40;1868.80;;;;;;4991300;28;20473;-58
2023/10/21 01:34:01;;;;;;;12.50;6.15;;;614.40;1868.80;;;;;;4991615;28;20100;-58
2023/10/21 01:36:27;;;;;;;13.65;5.20;;;614.40;1868.80;;;;;;4991582;28;20468;-59
2023/10/21 01:38:53;;;;;;;21.00;7.07;;;614.40;1868.80;;;;;;4991212;28;20077;-58
2023/10/21 01:41:18;;;;;;;13.07;5.82;;;614.40;1868.80;;;;;;4991043;28;20082;-58
2023/10/21 01:43:45;;;;;;;18.83;5.97;;;614.40;1868.80;;;;;;4991182;28;20034;-59
2023/10/21 01:46:10;;;;;;;24.58;5.93;;;614.40;1868.80;;;;;;4991080;28;20098;-58
2023/10/21 01:48:36;;;;;;;23.95;6.57;;;614.40;1894.40;;;;;;4991260;28;20118;-58
2023/10/21 01:51:05;;;;;;;19.67;8.10;;;589.70;1894.40;;;;;;4990747;28;20025;-58
2023/10/21 01:53:31;;;;;;;13.68;5.53;;;614.40;1894.40;;;;;;4990924;28;20463;-58
2023/10/21 01:56:03;;;;;;;17.70;8.13;;;589.70;1894.40;;;;;;4991085;28;20045;-57
2023/10/21 01:58:31;;;;;;;14.40;5.47;;;614.40;1894.40;;;;;;4973452;28;20045;-58
2023/10/21 02:00:57;;;;;;;17.45;6.03;;;614.40;1894.40;;;;;;4988910;28;20068;-58
2023/10/21 02:03:25;;;;;;;21.30;5.78;;;614.40;1894.40;;;;;;4990495;28;20073;-58
2023/10/21 02:05:51;;;;;;;17.60;5.45;;;589.70;1894.40;;;;;;4989994;28;20028;-58
2023/10/21 02:08:16;;;;;;;13.50;5.28;;;589.70;1894.40;;;;;;4990988;28;20121;-58
2023/10/21 02:10:42;;;;;;;16.08;7.28;;;614.40;1894.40;;;;;;4989540;28;20465;-59
2023/10/21 02:13:08;;;;;;;13.38;7.07;;;589.70;1894.40;;;;;;4987925;28;20185;-60
2023/10/21 02:15:36;;;;;;;15.88;7.15;;;589.70;1894.40;;;;;;4985708;28;20536;-58
2023/10/21 02:18:02;;;;;;;18.25;6.38;;;589.70;1894.40;;;;;;4990314;28;20038;-58
2023/10/21 02:20:37;;;;;;;13.65;6.72;;;589.70;1920.00;;;;;;5066908;28;20387;-59
2023/10/21 02:23:03;;;;;;;17.73;6.22;;;589.70;1920.00;;;;;;5066230;28;20386;-58
2023/10/21 02:25:31;;;;;;;12.43;7.15;;;589.70;1920.00;;;;;;5066250;28;20021;-59
2023/10/21 02:27:56;;;;;;;19.40;6.88;;;589.70;1920.00;;;;;;5061904;28;20037;-59
2023/10/21 02:30:22;;;;;;;20.05;7.30;;;589.70;1920.00;;;;;;5042403;28;20071;-60
2023/10/21 02:32:50;;;;;;;16.50;5.80;;;614.40;1920.00;;;;;;5059497;28;20068;-59
2023/10/21 02:35:16;;;;;;;13.85;5.80;;;589.60;1920.00;;;;;;5040829;28;20024;-59
2023/10/21 02:37:42;;;;;;;13.38;5.47;;;614.50;1894.40;;;;;;5065471;28;20035;-59
2023/10/21 02:40:09;;;;;;;18.63;5.40;;;614.50;1920.00;;;;;;5066716;28;20029;-59
2023/10/21 02:42:35;;;;;;;12.68;5.07;;;614.50;1920.00;;;;;;5065860;28;20020;-59
2023/10/21 02:45:01;;;;;;;20.60;6.68;;;614.50;1920.00;;;;;;5066063;28;20021;-59
2023/10/21 02:47:27;;;;;;;14.70;5.72;;;614.40;1945.60;;;;;;5065846;28;20039;-57
2023/10/21 02:49:53;;;;;;;16.05;6.07;;;614.40;1945.60;;;;;;5065530;28;20025;-59
2023/10/21 02:52:19;;;;;;;19.42;6.18;;;614.40;1945.60;;;;;;5066190;28;20420;-59
2023/10/21 02:54:44;;;;;;;15.50;5.90;;;614.40;1945.60;;;;;;5065581;28;20075;-59
2023/10/21 02:57:10;;;;;;;18.23;6.45;;;614.40;1945.60;;;;;;5066525;28;20025;-59
2023/10/21 02:59:36;;;;;;;18.85;6.18;;;614.40;1945.60;;;;;;5065752;28;20554;-59
2023/10/21 03:02:02;;;;;;;14.85;5.90;;;614.50;1945.60;;;;;;5065469;28;20028;-59
2023/10/21 03:04:27;;;;;;;15.82;6.78;;;614.50;1945.60;;;;;;5065485;28;20024;-60
2023/10/21 03:06:53;;;;;;;10.98;5.47;;;614.60;1945.60;;;;;;5047528;28;20364;-60
2023/10/21 03:09:19;;;;;;;18.50;6.45;;;614.70;1945.60;;;;;;5054749;28;20027;-60
2023/10/21 03:11:45;;;;;;;17.08;5.53;;;614.70;1945.60;;;;;;5065267;28;20075;-59
2023/10/21 03:14:10;;;;;;;13.52;5.30;;;614.70;1945.60;;;;;;5065392;28;20017;-60
2023/10/21 03:16:37;;;;;;;15.98;6.30;;;614.70;1945.60;;;;;;5055860;28;20104;-60
2023/10/21 03:19:04;;;;;;;15.88;5.38;;;614.70;1971.20;;;;;;5064619;28;20052;-60
2023/10/21 03:21:30;;;;;;;15.65;6.15;;;614.70;1971.20;;;;;;5064908;28;20035;-59
2023/10/21 03:23:56;;;;;;;16.75;5.38;;;614.70;1971.20;;;;;;5064990;28;20029;-60
2023/10/21 03:26:22;;;;;;;14.90;5.05;;;614.70;1971.20;;;;;;5065363;28;20036;-59
2023/10/21 03:28:50;;;;;;;23.55;6.93;;;614.70;1971.20;;;;;;5052577;28;20025;-60
2023/10/21 03:31:16;;;;;;;18.50;7.10;;;614.60;1971.20;;;;;;5047670;28;20045;-59
2023/10/21 03:33:41;;;;;;;10.48;4.97;;;614.60;1996.80;;;;;;5024485;28;20034;-59
2023/10/21 03:36:07;;;;;;;20.15;6.78;;;614.60;1971.20;;;;;;5033846;28;20050;-59
2023/10/21 03:38:33;;;;;;;13.68;4.78;;;614.60;1996.80;;;;;;5036378;28;20029;-59
2023/10/21 03:41:07;;;;;;;13.95;5.97;;;614.50;1996.80;;;;;;5031134;28;20033;-59
2023/10/21 03:43:34;;;;;;;12.63;5.63;;;614.60;1996.80;;;;;;5032398;28;20054;-58
2023/10/21 03:46:07;;;;;;;16.60;5.70;;;614.60;1996.80;;;;;;5029392;28;20029;-58
2023/10/21 03:48:33;;;;;;;8.63;4.30;;;614.50;1996.80;;;;;;5034287;28;20483;-60
2023/10/21 03:51:12;;;;;;;11.77;5.47;;;614.70;1996.80;;;;;;5045276;28;20503;-60
2023/10/21 03:53:43;;;;;;;16.60;5.90;;;614.70;1996.80;;;;;;5027574;28;20014;-60
2023/10/21 03:56:09;;;;;;;12.32;5.30;;;614.70;1996.80;;;;;;5033548;28;20127;-58
2023/10/21 03:58:36;;;;;;;13.80;6.15;;;614.70;1996.80;;;;;;5033161;28;20119;-59
2023/10/21 04:01:02;;;;;;;25.10;6.50;;;614.70;1996.80;;;;;;5043846;28;20033;-59
2023/10/21 04:03:28;;;;;;;15.30;6.40;;;614.70;1996.80;;;;;;5028582;28;20032;-59
2023/10/21 04:05:55;;;;;;;11.93;4.85;;;614.70;1996.80;;;;;;5039950;28;20032;-59
2023/10/21 04:08:23;;;;;;;18.75;5.53;;;614.70;1996.80;;;;;;5027801;28;20025;-59
2023/10/21 04:10:49;;;;;;;14.32;5.72;;;614.70;1996.80;;;;;;5022037;28;20030;-60
2023/10/21 04:13:15;;;;;;;16.88;5.80;;;614.60;1996.80;;;;;;5027307;28;20375;-59
2023/10/21 04:15:41;;;;;;;13.95;5.07;;;614.60;1996.80;;;;;;5028561;28;20038;-59
2023/10/21 04:18:07;;;;;;;15.38;4.88;;;614.60;1996.80;;;;;;5030602;28;20542;-58
2023/10/21 04:20:32;;;;;;;14.48;5.80;;;614.60;1996.80;;;;;;5032735;28;20128;-60
2023/10/21 04:22:58;;;;;;;12.95;5.80;;;614.50;2022.40;;;;;;5027003;28;20471;-59
2023/10/21 04:25:25;;;;;;;12.07;5.10;;;614.50;2022.40;;;;;;5026388;28;20112;-59
2023/10/21 04:27:51;;;;;;;9.93;4.93;;;614.40;2022.40;;;;;;5030116;28;20026;-59
2023/10/21 04:30:16;;;;;;;18.83;5.57;;;614.40;2048.00;;;;;;5025161;28;20028;-59
2023/10/21 04:32:42;;;;;;;15.52;5.90;;;614.40;2048.00;;;;;;5019052;28;20113;-59
2023/10/21 04:35:08;;;;;;;10.85;4.35;;;614.40;2022.40;;;;;;5029471;28;20379;-58
2023/10/21 04:37:35;;;;;;;14.13;5.95;;;614.40;2048.00;;;;;;5018351;28;20045;-59
2023/10/21 04:40:02;;;;;;;14.55;5.53;;;614.40;2048.00;;;;;;5034765;28;20159;-59
2023/10/21 04:42:28;;;;;;;11.52;4.85;;;614.40;2048.00;;;;;;5022148;28;20029;-59
2023/10/21 04:44:54;;;;;;;8.88;4.47;;;614.80;2048.00;;;;;;5020412;28;20022;-59
2023/10/21 04:47:20;;;;;;;13.00;5.05;;;614.40;2048.00;;;;;;5021013;28;20074;-60
2023/10/21 04:49:46;;;;;;;12.75;4.78;;;614.40;2048.00;;;;;;5024293;28;20041;-58
2023/10/21 04:52:12;;;;;;;15.45;4.93;;;589.70;2048.00;;;;;;5023626;28;20072;-58
2023/10/21 04:54:38;;;;;;;17.10;5.78;;;589.70;2048.00;;;;;;5030655;28;20029;-58
2023/10/21 04:57:04;;;;;;;15.10;5.30;;;614.40;2048.00;;;;;;5035654;28;20023;-59
2023/10/21 04:59:29;;;;;;;11.75;4.68;;;614.40;2048.00;;;;;;5033812;28;20087;-59
2023/10/21 05:01:56;;;;;;;8.57;4.82;;;614.40;2048.00;;;;;;5030820;28;20040;-57
2023/10/21 05:04:22;;;;;;;13.02;4.57;;;614.40;2048.00;;;;;;5024148;28;20061;-58
2023/10/21 05:06:48;;;;;;;9.93;4.00;;;614.40;2048.00;;;;;;5034681;28;20092;-58
2023/10/21 05:09:16;;;;;;;10.05;4.35;;;614.50;2048.00;;;;;;5032126;28;20018;-57
2023/10/21 05:11:41;;;;;;;11.15;4.65;;;614.40;2048.00;;;;;;5031296;28;20025;-59
2023/10/21 05:14:07;;;;;;;10.35;4.88;;;614.40;2048.00;;;;;;5026322;28;20075;-58
2023/10/21 05:16:33;;;;;;;14.15;5.40;;;614.40;2048.00;;;;;;5032753;28;20100;-58
2023/10/21 05:18:58;;;;;;;11.40;4.35;;;614.40;2048.00;;;;;;5040943;28;20087;-58
2023/10/21 05:21:24;;;;;;;9.80;4.30;;;614.40;2048.00;;;;;;5034642;28;20100;-57
2023/10/21 05:23:51;;;;;;;14.23;5.18;;;614.40;2048.00;;;;;;5026760;28;20036;-58
2023/10/21 05:26:18;;;;;;;15.63;4.95;;;589.70;2048.00;;;;;;5032549;28;20521;-59
2023/10/21 05:28:45;;;;;;;11.27;4.55;;;589.70;2048.00;;;;;;5033289;28;20028;-59
2023/10/21 05:31:10;;;;;;;12.07;5.22;;;589.70;2048.00;;;;;;5035236;28;20450;-58
2023/10/21 05:33:36;;;;;;;10.95;4.50;;;589.70;2048.00;;;;;;5027321;28;20040;-58
2023/10/21 05:36:03;;;;;;;18.70;4.85;;;589.70;2073.60;;;;;;5029417;28;20021;-59
2023/10/21 05:38:28;;;;;;;15.38;4.70;;;589.70;2073.60;;;;;;5031403;28;20108;-59
2023/10/21 05:40:57;;;;;;;9.75;4.72;;;589.70;2073.60;;;;;;5023004;28;20121;-58
2023/10/21 05:43:23;;;;;;;9.77;4.38;;;589.70;2073.60;;;;;;5027774;28;20025;-58
2023/10/21 05:45:48;;;;;;;10.23;4.40;;;589.60;2073.60;;;;;;5023482;28;20494;-58
2023/10/21 05:48:14;;;;;;;13.02;4.82;;;589.60;2073.60;;;;;;5024289;28;20026;-58
2023/10/21 05:50:40;;;;;;;12.63;4.90;;;589.60;2073.60;;;;;;5022782;28;20024;-59
2023/10/21 05:53:05;;;;;;;9.90;4.20;;;589.60;2073.60;;;;;;5031536;28;20048;-58
2023/10/21 05:55:31;;;;;;;11.93;5.63;;;589.60;2073.60;;;;;;5033250;28;20044;-58
2023/10/21 05:57:57;;;;;;;12.75;6.18;;;589.60;2073.60;;;;;;5029153;28;20136;-58
2023/10/21 06:00:23;;;;;;;18.92;6.72;;;589.60;2073.60;;;;;;5026610;28;20049;-59
2023/10/21 06:02:49;;;;;;;12.75;5.38;;;589.60;2073.60;;;;;;5026277;28;20025;-59
2023/10/21 06:05:15;;;;;;;11.02;4.32;;;589.60;2073.60;;;;;;5020652;28;20494;-59
2023/10/21 06:07:41;;;;;;;9.80;4.60;;;589.60;2073.60;;;;;;5019054;28;20080;-58
2023/10/21 06:10:08;;;;;;;15.75;5.40;;;589.60;2073.60;;;;;;5034601;28;20033;-58
2023/10/21 06:12:35;;;;;;;10.20;5.10;;;589.60;2073.60;;;;;;5026126;28;20026;-59
2023/10/21 06:15:01;;;;;;;11.60;4.22;;;589.60;2073.60;;;;;;5032373;28;20032;-59
2023/10/21 06:17:27;;;;;;;13.70;4.25;;;589.60;2073.60;;;;;;5025015;28;20021;-59
2023/10/21 06:19:53;;;;;;;12.18;5.03;;;589.60;2099.20;;;;;;5030439;28;20124;-60
2023/10/21 06:22:19;;;;;;;14.77;5.25;;;589.50;2099.20;;;;;;5030193;28;20113;-58
2023/10/21 06:24:46;;;;;;;7.88;4.30;;;589.50;2099.20;;;;;;5025837;28;20045;-59
2023/10/21 06:27:12;;;;;;;14.73;5.13;;;589.60;2073.60;;;;;;5027289;28;20026;-59
2023/10/21 06:29:38;;;;;;;10.88;5.00;;;589.60;2073.60;;;;;;5025176;28;20021;-59
2023/10/21 06:32:06;;;;;;;12.63;4.10;;;589.70;2048.00;;;;;;5028142;28;20047;-59
2023/10/21 06:34:33;;;;;;;8.95;4.18;;;589.70;2073.60;;;;;;5036555;28;20178;-59
2023/10/21 06:36:58;;;;;;;10.43;5.35;;;614.40;2048.00;;;;;;5034541;28;20440;-59
2023/10/21 06:39:25;;;;;;;11.93;4.47;;;614.40;2048.00;;;;;;5032739;28;20052;-59
2023/10/21 06:41:51;;;;;;;13.02;3.95;;;614.50;2048.00;;;;;;5025670;28;20033;-59
2023/10/21 06:44:17;;;;;;;15.13;4.53;;;614.50;2048.00;;;;;;5033681;28;20044;-59
2023/10/21 06:46:44;;;;;;;13.45;5.53;;;614.50;2048.00;;;;;;5021460;28;20026;-59
2023/10/21 06:49:09;;;;;;;10.63;4.00;;;614.40;2048.00;;;;;;5028544;28;20033;-60
2023/10/21 06:51:36;;;;;;;10.25;4.97;;;614.50;2048.00;;;;;;5020445;28;20026;-58
2023/10/21 06:54:03;;;;;;;11.38;5.03;;;614.50;2048.00;;;;;;5019313;28;20028;-58
2023/10/21 06:56:29;;;;;;;9.45;4.53;;;614.50;2048.00;;;;;;5023508;28;20038;-58
2023/10/21 06:58:55;;;;;;;15.38;6.78;;;614.50;2048.00;;;;;;5034705;28;20030;-59
2023/10/21 07:01:20;;;;;;;10.30;4.68;;;614.50;2048.00;;;;;;5033992;28;20104;-58
2023/10/21 07:03:46;;;;;;;13.73;5.55;;;614.60;2048.00;;;;;;5032057;28;20045;-59
2023/10/21 07:06:12;;;;;;;10.07;4.75;;;614.50;2048.00;;;;;;5027119;28;20410;-59
2023/10/21 07:08:37;;;;;;;13.55;5.53;;;614.50;2048.00;;;;;;5035711;28;20462;-60
2023/10/21 07:11:04;;;;;;;11.55;4.32;;;614.50;2048.00;;;;;;5027486;28;20021;-57
2023/10/21 07:13:29;;;;;;;12.25;4.32;;;614.50;2048.00;;;;;;5030720;28;20029;-58
2023/10/21 07:15:55;;;;;;;10.88;5.10;;;614.50;2073.60;;;;;;5034068;28;20032;-58
2023/10/21 07:18:21;;;;;;;10.10;4.75;;;614.50;2073.60;;;;;;5026812;28;20088;-59
2023/10/21 07:20:47;;;;;;;8.57;4.55;;;614.50;2073.60;;;;;;5030917;28;20032;-58
2023/10/21 07:23:14;;;;;;;8.30;4.78;;;614.50;2073.60;;;;;;5024754;28;20472;-57
2023/10/21 07:25:41;;;;;;;13.68;5.22;;;614.50;2073.60;;;;;;5043771;28;20021;-59
2023/10/21 07:28:06;;;;;;;11.32;5.15;;;614.50;2073.60;;;;;;5034296;28;20484;-58
2023/10/21 07:30:33;;;;;;;11.50;5.03;;;614.50;2099.20;;;;;;5050507;28;20063;-71
2023/10/21 07:33:00;;;;;;;17.40;5.53;;;614.50;2073.60;;;;;;5026759;28;20032;-69
2023/10/21 07:35:26;;;;;;;15.00;5.78;;;614.40;2073.60;;;;;;5033509;28;20021;-69
2023/10/21 07:37:54;;;;;;;19.88;6.45;;;614.50;2073.60;;;;;;5026068;28;20079;-71
2023/10/21 07:40:20;;;;;;;15.15;4.88;;;614.50;2099.20;;;;;;5020939;28;20033;-69
2023/10/21 07:42:46;;;;;;;19.60;5.78;;;614.50;2073.60;;;;;;5023999;28;20027;-71
2023/10/21 07:45:14;;;;;;;11.23;5.13;;;614.50;2073.60;;;;;;5025851;28;20025;-70
2023/10/21 07:47:41;;;;;;;14.57;5.50;;;614.50;2073.60;;;;;;5029154;28;20030;-68
2023/10/21 07:50:07;;;;;;;13.07;5.68;;;614.60;2073.60;;;;;;5022397;28;20428;-68
2023/10/21 07:52:37;;;;;;;11.45;5.72;;;614.60;2099.20;;;;;;5031520;28;20041;-69
2023/10/21 07:55:03;;;;;;;13.05;6.13;;;614.60;2073.60;;;;;;5033011;28;20025;-69
2023/10/21 07:57:31;;;;;;;13.68;5.93;;;614.50;2099.20;;;;;;5034686;28;20083;-70
2023/10/21 08:00:00;;;;;;;11.30;4.80;;;614.50;2099.20;;;;;;5023187;28;20046;-69
2023/10/21 08:02:27;;;;;;;17.05;4.88;;;614.50;2099.20;;;;;;5024515;28;20021;-69
2023/10/21 08:04:53;;;;;;;12.02;5.72;;;614.50;2073.60;;;;;;5027948;28;20084;-69
2023/10/21 08:07:19;;;;;;;15.23;6.03;;;614.50;2073.60;;;;;;5030107;28;20025;-69
2023/10/21 08:09:44;;;;;;;18.83;5.30;;;614.60;2073.60;;;;;;5033782;28;20025;-68
2023/10/21 08:12:10;;;;;;;14.68;6.53;;;614.70;2048.00;;;;;;5021686;28;20026;-69
2023/10/21 08:14:40;;;;;;;15.30;6.13;;;614.80;2048.00;;;;;;5029143;28;20479;-69
2023/10/21 08:17:07;;;;;;;23.27;6.60;;;614.80;2048.00;;;;;;5026939;28;20037;-68
2023/10/21 08:19:33;;;;;;;17.25;5.43;;;615.00;2048.00;;;;;;5029474;28;20659;-67
2023/10/21 08:22:02;;;;;;;17.88;5.28;;;615.10;2022.40;;;;;;5021966;28;20064;-71
2023/10/21 08:24:28;;;;;;;17.00;6.97;;;615.30;2022.40;;;;;;5021504;28;20045;-67
2023/10/21 08:26:54;;;;;;;15.40;6.07;;;615.30;2022.40;;;;;;5028194;28;20030;-68
2023/10/21 08:29:20;;;;;;;21.55;7.45;;;640.10;1996.80;;;;;;5025191;28;20026;-69
2023/10/21 08:31:47;;;;;;;23.98;8.68;;;640.10;2022.40;;;;;;5032480;28;20029;-69
2023/10/21 08:34:13;;;;;;;19.08;7.72;;;640.20;1996.80;;;;;;5022175;28;20134;-70
2023/10/21 08:36:40;;;;;;;18.13;8.23;;;640.20;1996.80;;;;;;5023248;28;20417;-69
2023/10/21 08:39:07;;;;;;;18.73;8.45;;;640.40;1996.80;;;;;;5027188;28;20041;-68
2023/10/21 08:41:39;;;;;;;21.58;7.40;;;640.20;1996.80;;;;;;5033712;28;20030;-67
2023/10/21 08:44:08;;;;;;;22.42;8.77;;;640.40;1971.20;;;;;;5022943;28;20030;-68
2023/10/21 08:46:35;;;;;;;20.27;7.70;;;640.30;1971.20;;;;;;5020408;28;20076;-68
2023/10/21 08:49:06;;;;;;;24.02;8.02;;;640.20;1996.80;;;;;;5024743;28;20034;-70
2023/10/21 08:51:33;;;;;;;20.33;9.00;;;640.20;1996.80;;;;;;5020214;28;20025;-69
2023/10/21 08:54:04;;;;;;;32.30;9.85;;;640.10;1996.80;;;;;;5028257;28;20033;-70
2023/10/21 08:56:32;;;;;;;29.63;9.55;;;640.00;2022.40;;;;;;5037372;28;20049;-70
2023/10/21 08:58:57;;;;;;;32.47;10.52;;;640.00;2022.40;;;;;;5019802;28;20040;-69
2023/10/21 09:01:24;;;;;;;19.98;8.48;;;640.00;2022.40;;;;;;5021420;28;20033;-67
2023/10/21 09:03:50;;;;;;;21.10;10.00;;;640.00;2022.40;;;;;;5028011;28;20034;-69
2023/10/21 09:06:17;;;;;;;26.50;10.82;;;640.00;2048.00;;;;;;5032308;28;20110;-69
2023/10/21 09:08:44;;;;;;;23.17;8.05;;;615.20;2073.60;;;;;;5034293;28;20412;-68
2023/10/21 09:11:13;;;;;;;27.27;10.07;;;640.00;2048.00;;;;;;5027220;28;20033;-69
2023/10/21 09:13:40;;;;;;;20.92;9.45;;;640.00;2048.00;;;;;;5027470;28;20025;-69
2023/10/21 09:16:31;;;;;;;28.63;9.23;;;640.00;2048.00;;;;;;5024454;28;20034;-68
2023/10/21 09:19:04;;;;;;;21.08;9.48;;;615.30;2073.60;;;;;;5028158;28;20500;-67
2023/10/21 09:21:32;;;;;;;25.95;10.23;;;640.00;2048.00;;;;;;5028685;28;20503;-69
2023/10/21 09:24:02;;;;;;;27.92;9.40;;;640.00;2048.00;;;;;;5024434;28;20052;-70
2023/10/21 09:26:46;;;;;;;28.50;12.38;;;640.00;1971.20;;;;;;5024698;28;20674;-69
2023/10/21 09:29:13;;;;;;;28.65;11.57;;;640.00;2048.00;;;;;;5023097;28;20079;-70
2023/10/21 09:31:52;;;;;;;24.85;11.05;;;615.30;2073.60;;;;;;5019616;28;20783;-69
2023/10/21 09:34:32;;;;;;;21.40;10.55;;;615.30;2073.60;;;;;;5026102;28;20369;-69
2023/10/21 09:37:03;;;;;;;27.55;11.63;;;615.30;2073.60;;;;;;5027396;28;20033;-68
2023/10/21 09:39:38;;;;;;;19.67;10.00;;;615.30;2048.00;;;;;;5023315;28;20033;-68
2023/10/21 09:42:05;;;;;;;32.00;11.15;;;615.30;2048.00;;;;;;5027749;28;20052;-69
2023/10/21 09:44:34;;;;;;;24.65;13.13;;;615.30;2048.00;;;;;;5031147;28;20522;-68
2023/10/21 09:47:03;;;;;;;29.38;11.43;;;615.30;2048.00;;;;;;5023657;28;20037;-71
2023/10/21 09:49:36;;;;;;;24.63;10.02;;;640.00;2022.40;;;;;;5019687;28;20160;-69
2023/10/21 09:52:06;;;;;;;26.65;12.00;;;640.00;2048.00;;;;;;5025696;28;20045;-70
2023/10/21 09:54:45;;;;;;;35.38;16.02;;;640.20;2048.00;;;;;;5026043;28;20164;-70
2023/10/21 09:57:12;;;;;;;27.88;9.98;;;640.20;2048.00;;;;;;5018578;28;20104;-71
2023/10/21 09:59:40;;;;;;;20.08;9.05;;;640.20;2073.60;;;;;;5022958;28;20208;-70
2023/10/21 10:02:07;;;;;;;23.52;11.32;;;640.30;1971.20;;;;;;5029629;28;20435;-70
2023/10/21 10:04:37;;;;;;;32.35;12.95;;;640.30;1996.80;;;;;;5021552;28;20063;-70
2023/10/21 10:07:06;;;;;;;33.10;11.13;;;640.30;2022.40;;;;;;5020092;28;20108;-69
2023/10/21 10:09:35;;;;;;;25.20;14.30;;;640.60;1920.00;;;;;;5032427;28;20037;-69
2023/10/21 10:12:07;;;;;;;30.67;11.70;;;640.60;1996.80;;;;;;5014717;28;20056;-70
2023/10/21 10:14:33;;;;;;;34.40;14.50;;;640.70;1996.80;;;;;;5016733;28;20041;-70
2023/10/21 10:17:00;;;;;;;32.95;13.73;;;640.60;1971.20;;;;;;5029250;28;20051;-70
2023/10/21 10:19:46;;;;;;;28.63;14.75;;;640.60;1971.20;;;;;;5021367;28;20050;-69
2023/10/21 10:22:19;;;;;;;32.13;12.27;;;640.70;1971.20;;;;;;5022039;28;20364;-71
2023/10/21 10:25:10;;;;;;;26.35;10.73;;;640.40;1971.20;;;;;;5035393;28;20039;-70
2023/10/21 10:27:42;;;;;;;22.45;9.73;;;665.60;1920.00;;;;;;5036914;28;20029;-71
2023/10/21 10:30:19;;;;;;;27.48;11.10;;;666.00;1843.20;;;;;;5047760;28;20037;-68
2023/10/21 10:32:47;;;;;;;31.27;8.32;;;666.20;1817.60;;;;;;5028691;28;20037;-70
2023/10/21 10:35:37;;;;;;;28.95;10.15;;;666.30;1766.40;;;;;;5048419;28;20410;-71
2023/10/21 10:38:16;;;;;;;36.00;10.88;;;666.30;1766.40;;;;;;5048021;28;20028;-70
2023/10/21 10:40:44;;;;;;;25.98;7.90;;;666.50;1766.40;;;;;;5039107;28;20095;-70
2023/10/21 10:43:13;;;;;;;22.33;8.27;;;666.50;1792.00;;;;;;5035302;28;20025;-71
2023/10/21 10:45:40;;;;;;;26.10;8.75;;;666.50;1792.00;;;;;;5047424;28;20540;-70
2023/10/21 10:48:09;;;;;;;20.27;8.52;;;666.50;1766.40;;;;;;5035897;28;20026;-71
2023/10/21 10:50:39;;;;;;;21.33;8.68;;;666.50;1740.80;;;;;;5051508;28;20137;-71
2023/10/21 10:53:11;;;;;;;26.52;8.45;;;666.30;1766.40;;;;;;5051998;28;20032;-70
2023/10/21 10:55:40;;;;;;;28.95;10.35;;;666.20;1715.20;;;;;;5053114;28;20040;-71
2023/10/21 10:58:06;;;;;;;36.90;9.65;;;666.20;1740.80;;;;;;5055431;28;20060;-71
2023/10/21 11:00:32;;;;;;;25.33;8.85;;;666.10;1766.40;;;;;;5034673;28;20045;-70
2023/10/21 11:02:59;;;;;;;24.70;10.38;;;666.00;1792.00;;;;;;5032643;28;20491;-71
2023/10/21 11:05:25;;;;;;;30.00;11.57;;;666.10;1792.00;;;;;;5045450;28;20579;-71
2023/10/21 11:07:54;;;;;;;29.17;11.30;;;666.00;1766.40;;;;;;5057449;28;20029;-70
2023/10/21 11:10:21;;;;;;;39.00;12.93;;;665.90;1843.20;;;;;;5048863;28;20028;-70
2023/10/21 11:12:51;;;;;;;29.35;12.30;;;665.70;1817.60;;;;;;5052442;28;20029;-70
2023/10/21 11:15:17;;;;;;;29.48;11.90;;;640.70;1792.00;;;;;;5048502;28;20021;-70
2023/10/21 11:17:47;;;;;;;30.42;17.67;;;640.70;1792.00;;;;;;5051706;28;20021;-71
2023/10/21 11:20:13;;;;;;;26.98;11.50;;;640.00;1817.60;;;;;;5038612;28;20053;-70
2023/10/21 11:22:40;;;;;;;26.55;11.95;;;640.00;1817.60;;;;;;5052398;28;20074;-70
2023/10/21 11:25:06;;;;;;;24.67;12.77;;;615.10;1817.60;;;;;;5051614;28;20047;-70
2023/10/21 11:27:33;;;;;;;27.73;11.75;;;615.00;1843.20;;;;;;5051851;28;20452;-70
2023/10/21 11:30:00;;;;;;;35.15;21.58;;;615.10;1817.60;;;;;;5034869;28;20112;-71
2023/10/21 11:32:30;;;;;;;37.45;19.73;;;614.90;1843.20;;;;;;5027024;28;20630;-69
2023/10/21 11:35:01;;;;;;;42.55;19.50;;;614.90;1843.20;;;;;;5044866;28;20053;-68
2023/10/21 11:37:27;;;;;;;51.72;29.50;;;614.90;1843.20;;;;;;5038366;28;20033;-69
2023/10/21 11:39:53;;;;;;;48.58;23.05;;;614.80;1843.20;;;;;;5036478;28;20086;-70
2023/10/21 11:42:18;;;;;;;36.03;16.63;;;614.80;1843.20;;;;;;5050956;28;20027;-69
2023/10/21 11:44:57;;;;;;;30.13;12.68;;;614.60;1843.20;;;;;;5051143;28;20036;-70
2023/10/21 11:47:28;;;;;;;29.98;14.52;;;614.90;1843.20;;;;;;5050548;28;20237;-70
2023/10/21 11:49:55;;;;;;;28.90;12.63;;;614.90;1843.20;;;;;;5049614;28;20037;-69
2023/10/21 11:52:26;;;;;;;37.00;16.63;;;614.90;1843.20;;;;;;5036893;28;20037;-69
2023/10/21 12:01:45;;;;;;;32.65;13.45;;;614.80;1843.20;;;;;;5050915;28;20111;-70
2023/10/21 12:11:10;;;;;;;31.23;14.98;;;614.70;1868.80;;;;;;5044191;28;20391;-67
2023/10/21 12:34:34;;;;;;;28.40;12.75;;;614.50;1894.40;;;;;;5050342;28;20060;-70
2023/10/21 12:39:55;;;;;;;41.80;13.50;;;614.60;1894.40;;;;;;5049872;28;20040;-68
2023/10/21 12:42:26;;;;;;;29.58;12.93;;;614.40;1920.00;;;;;;5049641;28;20021;-70
2023/10/21 12:44:55;;;;;;;36.50;14.20;;;614.50;1920.00;;;;;;5030358;28;20060;-69